createdAt,value
2023-01-20T00:01:23.711Z,76.05
2023-01-20T00:03:53.689Z,76.09
2023-01-20T00:06:22.369Z,76.65
2023-01-20T00:08:53.731Z,78.64
2023-01-20T00:11:22.392Z,81.06
2023-01-20T00:13:54.240Z,83.10
2023-01-20T00:16:22.599Z,85.89
2023-01-20T00:18:50.895Z,88.66
2023-01-20T00:21:19.719Z,90.80
2023-01-20T00:23:48.638Z,92.92
2023-01-20T00:26:19.670Z,94.65
2023-01-20T00:28:48.769Z,96.42
2023-01-20T00:31:19.200Z,96.62
2023-01-20T00:33:48.683Z,98.04
2023-01-20T00:36:18.455Z,99.12
2023-01-20T00:38:46.688Z,100.00
2023-01-20T00:41:17.781Z,100.00
2023-01-20T00:43:46.162Z,100.00
2023-01-20T00:46:14.590Z,100.00
2023-01-20T00:48:43.323Z,100.00
2023-01-20T00:51:11.573Z,100.00
2023-01-20T00:53:39.720Z,100.00
2023-01-20T00:56:09.137Z,100.00
2023-01-20T00:58:38.680Z,100.00
2023-01-20T01:01:07.139Z,100.00
2023-01-20T01:03:35.350Z,100.00
2023-01-20T01:06:08.664Z,100.00
2023-01-20T01:08:36.944Z,100.00
2023-01-20T01:11:06.443Z,100.00
2023-01-20T01:13:35.416Z,100.00
2023-01-20T01:16:05.145Z,100.00
2023-01-20T01:18:33.273Z,100.00
2023-01-20T01:21:07.780Z,100.00
2023-01-20T01:23:35.986Z,100.00
2023-01-20T01:26:04.270Z,100.00
2023-01-20T01:28:32.394Z,100.00
2023-01-20T01:31:03.022Z,100.00
2023-01-20T01:33:33.189Z,100.00
2023-01-20T01:36:03.936Z,100.00
2023-01-20T01:38:32.576Z,100.00
2023-01-20T01:41:00.827Z,100.00
2023-01-20T01:43:31.230Z,100.00
2023-01-20T01:45:59.849Z,100.00
2023-01-20T01:48:32.642Z,100.00
2023-01-20T01:51:06.817Z,100.00
2023-01-20T01:53:43.814Z,100.00
2023-01-20T01:56:14.357Z,100.00
2023-01-20T01:58:47.521Z,100.00
2023-01-20T02:01:15.895Z,100.00
2023-01-20T02:03:52.000Z,100.00
2023-01-20T02:06:23.769Z,100.00
2023-01-20T02:08:52.556Z,100.00
2023-01-20T02:11:20.701Z,100.00
2023-01-20T02:13:49.219Z,100.00
2023-01-20T02:16:26.106Z,100.00
2023-01-20T02:19:10.815Z,100.00
2023-01-20T02:22:05.423Z,100.00
2023-01-20T02:25:08.560Z,100.00
2023-01-20T02:27:55.741Z,100.00
2023-01-20T02:30:58.659Z,100.00
2023-01-20T02:33:31.835Z,100.00
2023-01-20T02:36:05.499Z,100.00
2023-01-20T02:38:39.284Z,100.00
2023-01-20T02:41:13.045Z,100.00
2023-01-20T02:43:48.402Z,100.00
2023-01-20T02:46:23.385Z,100.00
2023-01-20T02:48:57.191Z,100.00
2023-01-20T02:51:31.089Z,100.00
2023-01-20T02:54:03.840Z,100.00
2023-01-20T02:56:34.257Z,100.00
2023-01-20T02:59:07.371Z,100.00
2023-01-20T03:01:39.098Z,100.00
2023-01-20T03:04:11.585Z,100.00
2023-01-20T03:06:45.555Z,100.00
2023-01-20T03:09:18.726Z,100.00
2023-01-20T03:11:52.374Z,100.00
2023-01-20T03:14:20.791Z,100.00
2023-01-20T03:16:50.428Z,100.00
2023-01-20T03:19:21.511Z,100.00
2023-01-20T03:21:50.236Z,100.00
2023-01-20T03:24:18.367Z,100.00
2023-01-20T03:26:46.641Z,100.00
2023-01-20T03:29:16.170Z,100.00
2023-01-20T03:31:48.349Z,100.00
2023-01-20T03:34:21.386Z,100.00
2023-01-20T03:36:51.586Z,100.00
2023-01-20T03:39:20.788Z,100.00
2023-01-20T03:42:00.009Z,100.00
2023-01-20T03:44:43.197Z,100.00
2023-01-20T03:47:19.152Z,100.00
2023-01-20T03:50:00.271Z,100.00
2023-01-20T03:52:47.690Z,100.00
2023-01-20T03:55:22.950Z,100.00
2023-01-20T03:57:58.315Z,100.00
2023-01-20T04:00:29.697Z,100.00
2023-01-20T04:03:00.353Z,100.00
2023-01-20T04:05:30.992Z,100.00
2023-01-20T04:08:03.263Z,100.00
2023-01-20T04:10:34.266Z,100.00
2023-01-20T04:13:02.544Z,100.00
2023-01-20T04:15:35.786Z,100.00
2023-01-20T04:18:15.196Z,100.00
2023-01-20T04:20:46.014Z,100.00
2023-01-20T04:23:23.420Z,100.00
2023-01-20T04:25:51.611Z,100.00
2023-01-20T04:28:19.790Z,100.00
2023-01-20T04:30:48.122Z,100.00
2023-01-20T04:33:16.354Z,100.00
2023-01-20T04:35:45.884Z,100.00
2023-01-20T04:38:14.106Z,100.00
2023-01-20T04:40:42.311Z,100.00
2023-01-20T04:43:12.234Z,100.00
2023-01-20T04:45:42.236Z,100.00
2023-01-20T04:48:11.426Z,100.00
2023-01-20T04:50:40.806Z,100.00
2023-01-20T04:53:13.526Z,100.00
2023-01-20T04:55:41.768Z,100.00
2023-01-20T04:58:10.848Z,100.00
2023-01-20T05:00:39.134Z,100.00
2023-01-20T05:03:08.010Z,100.00
2023-01-20T05:05:36.317Z,100.00
2023-01-20T05:08:05.398Z,100.00
2023-01-20T05:10:35.396Z,100.00
2023-01-20T05:13:03.570Z,100.00
2023-01-20T05:15:31.914Z,100.00
2023-01-20T05:18:00.049Z,100.00
2023-01-20T05:20:28.155Z,100.00
2023-01-20T05:22:56.307Z,100.00
2023-01-20T05:25:24.361Z,100.00
2023-01-20T05:27:53.969Z,100.00
2023-01-20T05:30:22.361Z,100.00
2023-01-20T05:32:51.270Z,100.00
2023-01-20T05:35:19.735Z,100.00
2023-01-20T05:37:47.905Z,100.00
2023-01-20T05:40:16.310Z,100.00
2023-01-20T05:42:44.632Z,100.00
2023-01-20T05:45:14.534Z,100.00
2023-01-20T05:47:42.895Z,100.00
2023-01-20T05:50:12.516Z,100.00
2023-01-20T05:52:40.691Z,100.00
2023-01-20T05:55:09.469Z,100.00
2023-01-20T05:57:37.669Z,100.00
2023-01-20T06:00:08.612Z,100.00
2023-01-20T06:02:38.353Z,100.00
2023-01-20T06:05:07.645Z,100.00
2023-01-20T06:07:35.884Z,100.00
2023-01-20T06:10:04.214Z,100.00
2023-01-20T06:12:32.680Z,100.00
2023-01-20T06:15:00.774Z,99.09
2023-01-20T06:17:29.186Z,98.45
2023-01-20T06:19:58.925Z,98.29
2023-01-20T06:22:27.903Z,97.23
2023-01-20T06:24:56.009Z,96.63
2023-01-20T06:27:24.095Z,95.92
2023-01-20T06:29:52.428Z,95.93
2023-01-20T06:32:20.629Z,94.98
2023-01-20T06:34:48.982Z,94.02
2023-01-20T06:37:18.475Z,92.94
2023-01-20T06:39:46.638Z,92.83
2023-01-20T06:42:14.968Z,92.44
2023-01-20T06:44:43.181Z,91.24
2023-01-20T06:47:11.974Z,90.48
2023-01-20T06:49:40.017Z,89.39
2023-01-20T06:52:08.619Z,87.12
2023-01-20T06:54:38.192Z,86.90
2023-01-20T06:57:07.190Z,86.03
2023-01-20T06:59:35.311Z,85.77
2023-01-20T07:02:03.499Z,85.66
2023-01-20T07:04:31.630Z,85.60
2023-01-20T07:07:00.854Z,84.35
2023-01-20T07:09:28.988Z,81.68
2023-01-20T07:11:58.523Z,82.10
2023-01-20T07:14:28.546Z,82.07
2023-01-20T07:17:02.245Z,81.72
2023-01-20T07:19:40.447Z,81.63
2023-01-20T07:22:08.665Z,81.29
2023-01-20T07:24:36.932Z,80.02
2023-01-20T07:27:06.430Z,80.06
2023-01-20T07:29:36.048Z,81.27
2023-01-20T07:32:04.271Z,81.32
2023-01-20T07:34:32.410Z,81.17
2023-01-20T07:37:02.421Z,81.54
2023-01-20T07:39:30.500Z,81.71
2023-01-20T07:41:58.563Z,81.49
2023-01-20T07:44:28.130Z,81.50
2023-01-20T07:46:56.972Z,81.17
2023-01-20T07:49:25.069Z,81.18
2023-01-20T07:51:53.373Z,81.83
2023-01-20T07:54:21.616Z,82.59
2023-01-20T07:56:49.716Z,82.10
2023-01-20T07:59:17.775Z,82.45
2023-01-20T08:01:47.340Z,82.44
2023-01-20T08:04:19.328Z,82.46
2023-01-20T08:06:48.204Z,82.78
2023-01-20T08:09:16.282Z,82.33
2023-01-20T08:11:44.356Z,81.96
2023-01-20T08:14:12.506Z,81.91
2023-01-20T08:16:40.744Z,80.80
2023-01-20T08:19:10.395Z,80.03
2023-01-20T08:21:38.846Z,80.59
2023-01-20T08:24:07.322Z,80.89
2023-01-20T08:26:35.805Z,80.72
2023-01-20T08:29:05.443Z,80.20
2023-01-20T08:31:34.538Z,79.96
2023-01-20T08:34:03.242Z,79.50
2023-01-20T08:36:34.648Z,78.42
2023-01-20T08:39:05.692Z,77.31
2023-01-20T08:41:36.040Z,75.79
2023-01-20T08:44:06.686Z,75.69
2023-01-20T08:46:35.281Z,75.94
2023-01-20T08:49:03.407Z,74.93
2023-01-20T08:51:33.693Z,73.69
2023-01-20T08:54:02.290Z,74.12
2023-01-20T08:56:31.131Z,74.31
2023-01-20T08:58:59.968Z,74.48
2023-01-20T09:01:30.657Z,74.96
2023-01-20T09:04:05.932Z,75.27
2023-01-20T09:06:49.536Z,74.13
2023-01-20T09:09:19.757Z,73.13
2023-01-20T09:11:51.730Z,73.33
2023-01-20T09:14:20.341Z,73.29
2023-01-20T09:16:48.706Z,72.62
2023-01-20T09:19:17.125Z,74.57
2023-01-20T09:21:46.750Z,74.58
2023-01-20T09:24:15.420Z,74.06
2023-01-20T09:26:43.523Z,74.46
2023-01-20T09:29:13.662Z,75.29
2023-01-20T09:31:45.214Z,76.24
2023-01-20T09:34:19.151Z,76.67
2023-01-20T09:36:51.281Z,77.51
2023-01-20T09:39:37.156Z,76.76
2023-01-20T09:42:36.374Z,76.61
2023-01-20T09:45:23.043Z,77.13
2023-01-20T09:47:52.006Z,78.22
2023-01-20T09:50:50.805Z,78.77
2023-01-20T09:53:42.609Z,79.01
2023-01-20T09:56:16.551Z,79.75
2023-01-20T09:58:51.858Z,79.46
2023-01-20T10:01:30.948Z,80.11
2023-01-20T10:04:06.166Z,79.89
2023-01-20T10:06:39.179Z,79.59
2023-01-20T10:09:17.936Z,79.69
2023-01-20T10:11:49.868Z,79.74
2023-01-20T10:14:24.475Z,78.95
2023-01-20T10:16:59.573Z,79.25
2023-01-20T10:19:36.803Z,79.87
2023-01-20T10:22:11.327Z,79.07
2023-01-20T10:24:44.776Z,79.29
2023-01-20T10:27:13.060Z,79.07
2023-01-20T10:29:46.416Z,80.75
2023-01-20T10:32:20.789Z,79.66
2023-01-20T10:34:54.939Z,79.98
2023-01-20T10:37:25.731Z,80.62
2023-01-20T10:39:59.898Z,82.12
2023-01-20T10:42:28.671Z,82.81
2023-01-20T10:44:57.062Z,83.05
2023-01-20T10:47:41.981Z,83.33
2023-01-20T10:50:29.364Z,82.79
2023-01-20T10:53:13.517Z,82.80
2023-01-20T10:55:58.701Z,83.56
2023-01-20T10:58:29.367Z,83.40
2023-01-20T11:01:01.176Z,83.45
2023-01-20T11:03:35.447Z,84.33
2023-01-20T11:06:05.668Z,84.83
2023-01-20T11:08:34.044Z,84.34
2023-01-20T11:11:12.958Z,84.85
2023-01-20T11:13:41.059Z,84.26
2023-01-20T11:16:15.542Z,83.97
2023-01-20T11:18:43.714Z,83.76
2023-01-20T11:21:13.901Z,83.63
2023-01-20T11:23:48.717Z,83.20
2023-01-20T11:26:25.631Z,83.32
2023-01-20T11:28:58.858Z,83.78
2023-01-20T11:31:39.649Z,85.41
2023-01-20T11:34:23.183Z,85.98
2023-01-20T11:36:52.103Z,85.03
2023-01-20T11:39:28.375Z,84.75
2023-01-20T11:42:16.828Z,85.28
2023-01-20T11:44:46.707Z,84.19
2023-01-20T11:47:24.064Z,84.27
2023-01-20T11:50:24.772Z,83.58
2023-01-20T11:52:53.016Z,83.81
2023-01-20T11:55:23.474Z,84.04
2023-01-20T11:57:56.944Z,84.30
2023-01-20T12:00:40.799Z,84.19
2023-01-20T12:03:28.944Z,84.13
2023-01-20T12:06:02.644Z,85.49
2023-01-20T12:08:36.162Z,85.83
2023-01-20T12:11:08.850Z,86.05
2023-01-20T12:13:59.536Z,86.14
2023-01-20T12:16:32.967Z,86.54
2023-01-20T12:19:07.885Z,87.24
2023-01-20T12:21:41.317Z,87.99
2023-01-20T12:24:17.515Z,88.29
2023-01-20T12:26:45.815Z,88.79
2023-01-20T12:29:26.164Z,88.89
2023-01-20T12:31:54.792Z,88.22
2023-01-20T12:34:28.877Z,86.68
2023-01-20T12:37:09.579Z,86.13
2023-01-20T12:40:07.365Z,86.37
2023-01-20T12:43:08.457Z,87.53
2023-01-20T12:45:50.516Z,88.69
2023-01-20T12:48:34.463Z,89.19
2023-01-20T12:51:16.685Z,87.74
2023-01-20T12:54:03.065Z,86.66
2023-01-20T12:56:41.532Z,86.65
2023-01-20T12:59:22.090Z,85.40
2023-01-20T13:02:11.346Z,85.47
2023-01-20T13:05:22.209Z,85.79
2023-01-20T13:07:59.092Z,86.08
2023-01-20T13:10:51.109Z,86.52
2023-01-20T13:13:31.003Z,87.21
2023-01-20T13:16:06.178Z,86.81
2023-01-20T13:18:48.069Z,87.08
2023-01-20T13:21:19.124Z,87.76
2023-01-20T13:23:48.482Z,88.64
2023-01-20T13:26:17.639Z,88.65
2023-01-20T13:28:53.445Z,89.08
2023-01-20T13:31:47.465Z,89.97
2023-01-20T13:34:41.286Z,90.87
2023-01-20T13:37:28.589Z,91.65
2023-01-20T13:39:59.836Z,92.49
2023-01-20T13:42:51.515Z,93.44
2023-01-20T13:45:25.857Z,93.61
2023-01-20T13:48:00.050Z,93.58
2023-01-20T13:50:32.719Z,94.37
2023-01-20T13:53:07.771Z,94.55
2023-01-20T13:55:59.197Z,94.14
2023-01-20T13:58:29.928Z,94.32
2023-01-20T14:00:59.490Z,95.34
2023-01-20T14:03:31.231Z,96.13
2023-01-20T14:06:02.565Z,96.64
2023-01-20T14:08:33.321Z,97.89
2023-01-20T14:11:13.867Z,98.20
2023-01-20T14:13:42.501Z,98.35
2023-01-20T14:16:21.406Z,98.88
2023-01-20T14:18:50.195Z,100.00
2023-01-20T14:21:23.809Z,100.00
2023-01-20T14:23:52.724Z,100.00
2023-01-20T14:26:25.759Z,100.00
2023-01-20T14:28:56.496Z,100.00
2023-01-20T14:31:40.838Z,100.00
2023-01-20T14:34:27.082Z,100.00
2023-01-20T14:36:57.909Z,100.00
2023-01-20T14:39:28.453Z,100.00
2023-01-20T14:41:58.675Z,95.43
2023-01-20T14:44:29.918Z,87.92
2023-01-20T14:46:59.649Z,86.68
2023-01-20T14:49:34.122Z,85.63
2023-01-20T14:52:05.745Z,85.48
2023-01-20T14:54:39.945Z,83.41
2023-01-20T14:57:27.791Z,81.83
2023-01-20T15:00:14.674Z,81.04
2023-01-20T15:02:45.750Z,81.21
2023-01-20T15:05:27.910Z,80.63
2023-01-20T15:08:18.694Z,80.23
2023-01-20T15:10:47.133Z,79.63
2023-01-20T15:13:25.638Z,78.35
2023-01-20T15:16:07.122Z,77.67
2023-01-20T15:18:35.702Z,77.47
2023-01-20T15:21:19.259Z,76.99
2023-01-20T15:23:52.780Z,77.91
2023-01-20T15:26:27.856Z,77.75
2023-01-20T15:28:56.881Z,79.03
2023-01-20T15:31:26.585Z,78.85
2023-01-20T15:33:54.836Z,78.74
2023-01-20T15:36:25.137Z,79.08
2023-01-20T15:38:54.947Z,79.46
2023-01-20T15:41:24.348Z,79.42
2023-01-20T15:43:54.566Z,79.49
2023-01-20T15:46:23.032Z,80.05
2023-01-20T15:48:51.259Z,81.37
2023-01-20T15:51:21.021Z,83.29
2023-01-20T15:53:49.837Z,84.67
2023-01-20T15:56:22.746Z,85.66
2023-01-20T15:58:51.931Z,87.86
2023-01-20T16:01:24.001Z,89.64
2023-01-20T16:03:53.125Z,91.43
2023-01-20T16:06:23.813Z,91.68
2023-01-20T16:08:53.052Z,92.30
2023-01-20T16:11:22.593Z,93.60
2023-01-20T16:13:50.766Z,96.00
2023-01-20T16:16:21.087Z,97.49
2023-01-20T16:18:50.424Z,98.40
2023-01-20T16:21:20.288Z,99.60
2023-01-20T16:23:48.438Z,100.00
2023-01-20T16:26:22.955Z,100.00
2023-01-20T16:28:53.554Z,100.00
2023-01-20T16:31:22.985Z,100.00
2023-01-20T16:33:51.201Z,100.00
2023-01-20T16:36:21.179Z,100.00
2023-01-20T16:38:50.142Z,100.00
2023-01-20T16:41:22.344Z,100.00
2023-01-20T16:43:51.086Z,100.00
2023-01-20T16:46:23.756Z,100.00
2023-01-20T16:48:53.530Z,100.00
2023-01-20T16:51:25.911Z,100.00
2023-01-20T16:53:55.755Z,100.00
2023-01-20T16:56:25.858Z,100.00
2023-01-20T16:58:57.911Z,100.00
2023-01-20T17:01:28.235Z,100.00
2023-01-20T17:03:58.131Z,100.00
2023-01-20T17:06:28.529Z,100.00
2023-01-20T17:09:00.045Z,100.00
2023-01-20T17:11:29.733Z,100.00
2023-01-20T17:13:58.542Z,100.00
2023-01-20T17:16:28.268Z,100.00
2023-01-20T17:18:59.883Z,100.00
2023-01-20T17:21:30.762Z,100.00
2023-01-20T17:24:01.554Z,100.00
2023-01-20T17:26:30.590Z,100.00
2023-01-20T17:29:02.529Z,100.00
2023-01-20T17:31:34.587Z,100.00
2023-01-20T17:34:02.774Z,100.00
2023-01-20T17:36:38.878Z,100.00
2023-01-20T17:39:09.160Z,100.00
2023-01-20T17:41:37.741Z,100.00
2023-01-20T17:44:07.473Z,100.00
2023-01-20T17:46:37.242Z,100.00
2023-01-20T17:49:06.917Z,100.00
2023-01-20T17:51:35.360Z,100.00
2023-01-20T17:54:04.276Z,100.00
2023-01-20T17:56:32.931Z,100.00
2023-01-20T17:59:01.279Z,100.00
2023-01-20T18:01:31.625Z,100.00
2023-01-20T18:04:04.184Z,100.00
2023-01-20T18:06:35.392Z,100.00
2023-01-20T18:09:03.944Z,100.00
2023-01-20T18:11:35.203Z,100.00
2023-01-20T18:14:05.259Z,100.00
2023-01-20T18:16:36.603Z,100.00
2023-01-20T18:19:06.558Z,100.00
2023-01-20T18:21:37.102Z,100.00
2023-01-20T18:24:07.999Z,100.00
2023-01-20T18:26:38.133Z,100.00
2023-01-20T18:29:11.584Z,100.00
2023-01-20T18:31:40.129Z,100.00
2023-01-20T18:34:13.242Z,100.00
2023-01-20T18:36:43.303Z,100.00
2023-01-20T18:39:15.325Z,100.00
2023-01-20T18:41:44.470Z,100.00
2023-01-20T18:44:13.007Z,100.00
2023-01-20T18:46:43.015Z,100.00
2023-01-20T18:49:14.326Z,100.00
2023-01-20T18:51:44.777Z,100.00
2023-01-20T18:54:15.117Z,100.00
2023-01-20T18:56:43.350Z,100.00
2023-01-20T18:59:12.723Z,100.00
2023-01-20T19:01:42.600Z,100.00
2023-01-20T19:04:13.706Z,100.00
2023-01-20T19:06:43.432Z,100.00
2023-01-20T19:09:12.318Z,100.00
2023-01-20T19:11:42.777Z,100.00
2023-01-20T19:14:13.992Z,100.00
2023-01-20T19:16:49.239Z,100.00
2023-01-20T19:19:20.193Z,100.00
2023-01-20T19:21:52.038Z,100.00
2023-01-20T19:24:21.607Z,100.00
2023-01-20T19:26:50.002Z,100.00
2023-01-20T19:29:20.111Z,100.00
2023-01-20T19:31:49.254Z,100.00
2023-01-20T19:34:18.867Z,100.00
2023-01-20T19:36:47.165Z,100.00
2023-01-20T19:39:15.619Z,100.00
2023-01-20T19:41:44.019Z,100.00
2023-01-20T19:44:13.739Z,100.00
2023-01-20T19:46:42.078Z,100.00
2023-01-20T19:49:12.355Z,100.00
2023-01-20T19:51:42.053Z,100.00
2023-01-20T19:54:13.665Z,100.00
2023-01-20T19:56:41.912Z,100.00
2023-01-20T19:59:13.335Z,100.00
2023-01-20T20:01:41.564Z,100.00
2023-01-20T20:04:11.615Z,100.00
2023-01-20T20:06:45.022Z,100.00
2023-01-20T20:09:17.200Z,100.00
2023-01-20T20:11:45.777Z,100.00
2023-01-20T20:14:16.337Z,100.00
2023-01-20T20:16:45.042Z,100.00
2023-01-20T20:19:16.172Z,100.00
2023-01-20T20:21:46.333Z,100.00
2023-01-20T20:24:15.610Z,100.00
2023-01-20T20:26:46.363Z,100.00
2023-01-20T20:29:16.481Z,100.00
2023-01-20T20:31:44.851Z,100.00
2023-01-20T20:34:16.062Z,100.00
2023-01-20T20:36:46.085Z,100.00
2023-01-20T20:39:17.594Z,100.00
2023-01-20T20:41:45.791Z,100.00
2023-01-20T20:44:14.201Z,100.00
2023-01-20T20:46:43.531Z,100.00
2023-01-20T20:49:15.844Z,100.00
2023-01-20T20:51:45.457Z,100.00
2023-01-20T20:54:16.981Z,100.00
2023-01-20T20:56:45.546Z,100.00
2023-01-20T20:59:14.182Z,100.00
2023-01-20T21:01:42.561Z,100.00
2023-01-20T21:04:11.676Z,100.00
2023-01-20T21:06:39.848Z,100.00
2023-01-20T21:09:09.823Z,100.00
2023-01-20T21:11:38.652Z,100.00
2023-01-20T21:14:07.528Z,100.00
2023-01-20T21:16:36.038Z,100.00
2023-01-20T21:19:05.272Z,100.00
2023-01-20T21:21:33.545Z,100.00
2023-01-20T21:24:01.660Z,100.00
2023-01-20T21:26:31.213Z,100.00
2023-01-20T21:29:01.829Z,100.00
2023-01-20T21:31:31.728Z,100.00
2023-01-20T21:34:01.010Z,100.00
2023-01-20T21:36:30.581Z,100.00
2023-01-20T21:38:59.982Z,100.00
2023-01-20T21:41:28.068Z,100.00
2023-01-20T21:44:15.342Z,100.00
2023-01-20T21:46:43.780Z,100.00
2023-01-20T21:49:29.749Z,99.55
2023-01-20T21:52:15.661Z,96.31
2023-01-20T21:54:45.406Z,93.94
2023-01-20T21:57:14.256Z,92.08
2023-01-20T21:59:45.767Z,91.94
2023-01-20T22:02:15.093Z,91.25
2023-01-20T22:04:43.642Z,91.21
2023-01-20T22:07:11.990Z,92.55
2023-01-20T22:09:41.316Z,91.73
2023-01-20T22:12:10.013Z,91.89
2023-01-20T22:14:38.412Z,92.74
2023-01-20T22:17:08.757Z,93.14
2023-01-20T22:19:37.303Z,93.41
2023-01-20T22:22:06.365Z,94.17
2023-01-20T22:24:34.987Z,94.85
2023-01-20T22:27:03.551Z,95.66
2023-01-20T22:29:32.029Z,96.59
2023-01-20T22:32:02.458Z,97.78
2023-01-20T22:34:32.448Z,98.10
2023-01-20T22:37:00.852Z,99.10
2023-01-20T22:39:29.380Z,100.00
2023-01-20T22:41:57.627Z,100.00
2023-01-20T22:44:25.780Z,100.00
2023-01-20T22:46:54.049Z,100.00
2023-01-20T22:49:22.233Z,100.00
2023-01-20T22:51:52.249Z,100.00
2023-01-20T22:54:20.372Z,100.00
2023-01-20T22:56:48.521Z,100.00
2023-01-20T22:59:16.721Z,100.00
2023-01-20T23:01:44.918Z,100.00
2023-01-20T23:04:15.145Z,100.00
2023-01-20T23:06:43.305Z,100.00
2023-01-20T23:09:14.527Z,100.00
2023-01-20T23:11:43.170Z,100.00
2023-01-20T23:14:13.535Z,100.00
2023-01-20T23:16:43.906Z,100.00
2023-01-20T23:19:12.638Z,100.00
2023-01-20T23:21:40.880Z,100.00
2023-01-20T23:24:09.607Z,100.00
2023-01-20T23:26:39.066Z,100.00
2023-01-20T23:29:07.231Z,100.00
2023-01-20T23:31:35.504Z,100.00
2023-01-20T23:34:03.787Z,100.00
2023-01-20T23:36:31.928Z,100.00
2023-01-20T23:39:00.097Z,100.00
2023-01-20T23:41:28.409Z,100.00
2023-01-20T23:43:57.990Z,100.00
2023-01-20T23:46:27.170Z,100.00
2023-01-20T23:48:55.324Z,100.00
2023-01-20T23:51:23.537Z,100.00
2023-01-20T23:53:52.077Z,100.00
2023-01-20T23:56:21.821Z,100.00
2023-01-20T23:58:50.221Z,100.00
